Time;durP1;ratioP1;P1;durP2;ratioP2;P2;SDS_P1;SDS_P2;PMS_P1;PMS_P2;Temp;Humidity;BMP_temperature;BMP_pressure;BME280_temperature;BME280_humidity;BME280_pressure;Samples;Min_cycle;Max_cycle;Signal;HPM_P1;HPM_P2
2022/10/31 00:01:23;;;;;;;1.63;1.20;;;;;;;14.71;84.20;100810.34;5031506;28;20183;-87
2022/10/31 00:03:49;;;;;;;4.07;1.00;;;;;;;14.63;84.57;100804.88;5031027;28;20176;-87
2022/10/31 00:06:17;;;;;;;1.07;1.07;;;;;;;14.52;85.07;100813.47;5031364;28;20222;-87
2022/10/31 00:08:44;;;;;;;0.57;0.57;;;;;;;14.43;85.29;100812.66;5031475;28;20179;-82
2022/10/31 00:11:10;;;;;;;1.63;1.53;;;;;;;14.27;86.21;100798.63;5031141;28;20665;-85
2022/10/31 00:13:35;;;;;;;0.90;0.90;;;;;;;14.18;87.05;100805.31;5031063;28;20180;-86
2022/10/31 00:16:01;;;;;;;0.60;0.57;;;;;;;14.14;87.56;100805.13;5031280;28;20202;-83
2022/10/31 00:18:26;;;;;;;1.17;1.13;;;;;;;14.09;87.82;100802.56;5031025;28;20646;-87
2022/10/31 00:21:02;;;;;;;2.40;2.27;;;;;;;14.08;87.71;100800.97;5031290;28;20172;-86
2022/10/31 00:23:27;;;;;;;0.53;0.53;;;;;;;14.00;88.38;100804.50;5031003;28;20626;-86
2022/10/31 00:25:52;;;;;;;2.73;1.20;;;;;;;13.92;89.28;100806.16;5031107;28;20179;-88
2022/10/31 00:28:18;;;;;;;1.40;1.30;;;;;;;13.89;89.32;100803.25;5031092;28;20225;-85
2022/10/31 00:30:43;;;;;;;3.57;1.37;;;;;;;13.94;89.22;100814.88;5030896;28;20357;-81
2022/10/31 00:33:08;;;;;;;1.13;1.10;;;;;;;13.89;89.42;100814.25;5030745;28;20208;-82
2022/10/31 00:35:34;;;;;;;2.20;1.87;;;;;;;13.75;90.13;100800.69;5030918;28;20175;-84
2022/10/31 00:37:59;;;;;;;1.70;1.20;;;;;;;13.77;90.23;100811.34;5031075;28;20178;-87
2022/10/31 00:40:25;;;;;;;1.83;1.73;;;;;;;13.78;90.49;100816.50;5030947;28;20175;-86
2022/10/31 00:42:50;;;;;;;1.37;1.30;;;;;;;14.02;89.68;100815.16;5030598;28;20283;-82
2022/10/31 00:45:15;;;;;;;3.50;1.10;;;;;;;14.14;88.60;100826.31;5030861;28;20188;-87
2022/10/31 00:47:41;;;;;;;1.40;1.30;;;;;;;14.11;88.26;100829.72;5030394;28;20184;-83
2022/10/31 00:50:06;;;;;;;1.13;1.13;;;;;;;14.06;88.38;100827.97;5030732;28;20225;-86
2022/10/31 00:52:32;;;;;;;1.17;1.10;;;;;;;14.19;87.89;100828.91;5030952;28;20176;-87
2022/10/31 00:54:57;;;;;;;25.07;2.63;;;;;;;14.18;87.80;100828.09;5031040;28;20218;-76
2022/10/31 00:57:22;;;;;;;8.33;2.30;;;;;;;14.25;87.67;100830.34;5030751;28;20619;-76
2022/10/31 00:59:47;;;;;;;2.73;2.53;;;;;;;14.35;87.10;100830.00;5030587;28;20407;-76
2022/10/31 01:02:13;;;;;;;2.03;1.73;;;;;;;14.52;86.50;100827.22;5030802;28;20194;-78
2022/10/31 01:04:38;;;;;;;2.63;2.10;;;;;;;14.63;85.56;100837.88;5030330;28;20186;-76
2022/10/31 01:07:03;;;;;;;2.80;2.40;;;;;;;14.74;85.31;100834.41;5031261;28;20622;-77
2022/10/31 01:09:28;;;;;;;3.50;2.63;;;;;;;14.76;84.95;100837.66;5030951;28;20199;-76
2022/10/31 01:11:54;;;;;;;6.00;3.13;;;;;;;14.78;84.82;100835.41;5030607;28;20176;-75
2022/10/31 01:14:19;;;;;;;6.83;2.53;;;;;;;14.75;84.92;100835.22;5013182;28;20179;-76
2022/10/31 01:16:44;;;;;;;5.60;3.50;;;;;;;14.80;85.16;100843.31;5030617;28;20187;-79
2022/10/31 01:19:10;;;;;;;6.23;2.43;;;;;;;14.82;85.20;100857.53;5030535;28;20214;-77
2022/10/31 01:21:35;;;;;;;2.80;2.60;;;;;;;14.78;85.44;100851.91;5012485;28;20275;-76
2022/10/31 01:24:03;;;;;;;2.80;2.60;;;;;;;14.78;85.63;100864.84;5012217;28;20180;-81
2022/10/31 01:26:30;;;;;;;3.73;3.43;;;;;;;14.71;86.20;100854.34;5030187;28;20673;-76
2022/10/31 01:29:02;;;;;;;10.60;4.43;;;;;;;14.66;86.44;100871.03;5030495;28;20207;-76
2022/10/31 01:31:30;;;;;;;5.13;2.87;;;;;;;14.61;86.64;100860.22;5030142;28;20974;-76
2022/10/31 01:33:56;;;;;;;9.30;2.93;;;;;;;14.59;86.55;100867.97;5030077;28;20176;-77
2022/10/31 01:36:28;;;;;;;2.23;2.07;;;;;;;14.55;86.71;100859.56;5030015;28;20530;-76
2022/10/31 01:38:56;;;;;;;12.00;3.77;;;;;;;14.47;87.37;100863.16;5030137;28;20315;-77
2022/10/31 01:41:24;;;;;;;3.30;3.00;;;;;;;14.42;87.71;100865.22;5030149;28;20532;-77
2022/10/31 01:43:51;;;;;;;5.80;3.30;;;;;;;14.37;88.34;100862.66;5029643;28;20172;-79
2022/10/31 01:46:40;;;;;;;3.83;2.27;;;;;;;14.29;88.84;100862.34;5030052;28;20519;-83
2022/10/31 01:49:18;;;;;;;3.93;2.53;;;;;;;14.27;89.54;100866.53;5030032;28;20176;-76
2022/10/31 01:51:57;;;;;;;5.73;2.87;;;;;;;14.25;90.01;100864.13;5030142;28;20603;-76
2022/10/31 01:54:29;;;;;;;5.40;4.77;;;;;;;14.31;90.38;100864.75;5029433;28;20226;-76
2022/10/31 01:56:57;;;;;;;5.17;4.60;;;;;;;14.33;90.51;100865.25;5030170;28;20578;-75
2022/10/31 01:59:26;;;;;;;9.00;4.13;;;;;;;14.32;90.76;100858.16;5012266;28;20180;-76
2022/10/31 02:01:52;;;;;;;5.67;4.83;;;;;;;14.30;90.82;100858.44;5033538;28;20366;-78
2022/10/31 02:04:19;;;;;;;13.97;6.57;;;;;;;14.26;91.28;100860.25;5033490;28;20203;-76
2022/10/31 02:06:49;;;;;;;12.13;4.13;;;;;;;14.27;92.34;100863.78;5033573;28;20187;-76
2022/10/31 02:09:15;;;;;;;4.30;4.00;;;;;;;14.23;92.65;100863.66;5033553;28;20261;-77
2022/10/31 02:11:41;;;;;;;13.43;7.03;;;;;;;14.21;93.53;100859.63;5016375;28;20526;-80
2022/10/31 02:14:06;;;;;;;16.00;5.83;;;;;;;14.16;94.21;100857.81;5033230;28;20674;-80
2022/10/31 02:16:31;;;;;;;13.57;6.30;;;;;;;14.11;94.64;100862.69;5033406;28;20302;-82
2022/10/31 02:18:57;;;;;;;11.13;5.13;;;;;;;14.10;94.78;100872.88;5033391;28;20650;-77
2022/10/31 02:21:25;;;;;;;7.10;6.40;;;;;;;14.07;95.03;100870.78;5033482;28;20208;-76
2022/10/31 02:23:59;;;;;;;7.83;3.83;;;;;;;14.05;95.02;100866.75;5033070;28;20183;-76
2022/10/31 02:26:43;;;;;;;8.47;7.30;;;;;;;14.05;95.43;100870.31;5033292;28;20188;-76
2022/10/31 02:29:14;;;;;;;12.30;3.57;;;;;;;14.02;95.91;100867.38;5033168;28;20214;-76
2022/10/31 02:32:04;;;;;;;6.07;5.40;;;;;;;14.03;96.33;100867.03;5015342;28;20180;-81
2022/10/31 02:34:40;;;;;;;4.73;4.20;;;;;;;14.02;96.39;100865.44;5032974;28;20180;-79
2022/10/31 02:37:08;;;;;;;5.23;4.20;;;;;;;14.05;96.79;100872.25;5033176;28;20175;-77
2022/10/31 02:39:42;;;;;;;8.43;5.37;;;;;;;14.04;96.88;100870.63;5033038;28;20186;-76
2022/10/31 02:42:17;;;;;;;5.00;4.53;;;;;;;14.02;96.98;100868.19;5033075;28;20245;-79
2022/10/31 02:44:46;;;;;;;6.70;2.87;;;;;;;14.04;96.40;100865.13;5032884;28;20188;-78
2022/10/31 02:47:16;;;;;;;5.00;4.57;;;;;;;14.03;95.75;100866.25;5032931;28;20204;-79
2022/10/31 02:49:56;;;;;;;9.20;5.17;;;;;;;14.03;95.95;100869.78;5033034;28;20253;-82
2022/10/31 02:52:24;;;;;;;4.30;4.00;;;;;;;13.98;96.01;100870.78;5032791;28;20184;-86
2022/10/31 02:54:51;;;;;;;16.77;4.03;;;;;;;14.00;96.40;100871.25;5032636;28;20180;-87
2022/10/31 02:57:25;;;;;;;4.57;4.20;;;;;;;13.93;96.86;100870.94;5032888;28;20681;-84
2022/10/31 02:59:59;;;;;;;9.13;3.77;;;;;;;14.02;97.32;100878.38;5032755;28;20225;-76
2022/10/31 03:02:44;;;;;;;20.97;6.10;;;;;;;13.96;97.25;100877.72;5033030;28;20528;-77
2022/10/31 03:05:34;;;;;;;9.00;4.10;;;;;;;13.93;97.40;100873.69;5032943;28;20176;-76
2022/10/31 03:08:05;;;;;;;5.70;5.13;;;;;;;13.88;97.73;100878.53;5032724;28;20364;-80
2022/10/31 03:10:39;;;;;;;5.00;4.60;;;;;;;13.78;98.23;100878.88;5031940;28;20214;-84
2022/10/31 03:13:12;;;;;;;6.03;3.13;;;;;;;13.70;99.13;100872.22;5014838;28;20179;-84
2022/10/31 03:15:43;;;;;;;2.93;2.70;;;;;;;13.64;99.52;100874.31;5032656;28;20263;-76
2022/10/31 03:18:12;;;;;;;3.83;3.63;;;;;;;13.65;100.00;100873.19;5032489;28;20533;-82
2022/10/31 03:20:47;;;;;;;8.27;7.47;;;;;;;13.64;100.00;100881.75;5032342;28;20171;-79
2022/10/31 03:23:17;;;;;;;3.70;3.47;;;;;;;13.62;100.00;100890.31;5032556;28;20180;-77
2022/10/31 03:25:43;;;;;;;5.23;3.27;;;;;;;13.58;100.00;100883.81;5032105;28;20199;-80
2022/10/31 03:28:12;;;;;;;2.63;2.53;;;;;;;13.58;100.00;100883.81;5032374;28;20187;-79
2022/10/31 03:30:41;;;;;;;6.63;5.80;;;;;;;13.55;100.00;100887.22;5032089;28;20206;-77
2022/10/31 03:33:13;;;;;;;3.53;3.33;;;;;;;13.53;100.00;100888.66;5031948;28;20187;-78
2022/10/31 03:35:44;;;;;;;2.17;2.07;;;;;;;13.42;100.00;100887.34;5032076;28;20632;-81
2022/10/31 03:38:10;;;;;;;0.93;0.93;;;;;;;13.30;100.00;100898.94;5032062;28;20176;-79
2022/10/31 03:40:39;;;;;;;2.77;1.30;;;;;;;13.19;100.00;100895.69;5031984;28;20168;-79
2022/10/31 03:43:10;;;;;;;2.23;1.70;;;;;;;13.06;100.00;100894.66;5032274;28;20255;-80
2022/10/31 03:45:41;;;;;;;2.13;2.03;;;;;;;13.04;100.00;100885.94;5032080;28;20198;-77
2022/10/31 03:48:07;;;;;;;2.63;2.43;;;;;;;12.96;100.00;100885.88;5014340;28;20174;-79
2022/10/31 03:50:45;;;;;;;6.30;2.70;;;;;;;12.87;100.00;100894.06;5032150;28;20203;-76
2022/10/31 03:53:19;;;;;;;5.57;5.10;;;;;;;12.75;100.00;100893.88;5032031;28;20172;-77
2022/10/31 03:55:56;;;;;;;8.20;3.13;;;;;;;12.73;100.00;100899.66;5031756;28;20184;-79
2022/10/31 03:58:28;;;;;;;5.27;4.77;;;;;;;12.71;100.00;100906.56;5031741;28;20258;-78
2022/10/31 04:00:56;;;;;;;3.50;2.00;;;;;;;12.68;100.00;100897.03;5031663;28;20183;-80
2022/10/31 04:03:33;;;;;;;1.97;1.83;;;;;;;12.68;100.00;100896.22;5013670;28;20547;-77
2022/10/31 04:06:02;;;;;;;8.83;4.97;;;;;;;12.70;100.00;100903.00;5031574;28;20176;-83
2022/10/31 04:08:31;;;;;;;4.07;3.77;;;;;;;12.68;100.00;100904.44;5031556;28;20176;-79
2022/10/31 04:10:59;;;;;;;3.37;3.07;;;;;;;12.67;100.00;100905.56;5031320;28;20209;-76
2022/10/31 04:13:29;;;;;;;9.87;3.77;;;;;;;12.64;100.00;100920.72;5031740;28;20189;-86
2022/10/31 04:15:55;;;;;;;3.67;3.40;;;;;;;12.60;100.00;100907.97;5031808;28;20186;-86
2022/10/31 04:18:22;;;;;;;8.33;4.90;;;;;;;12.64;100.00;100911.69;5031649;28;20168;-81
2022/10/31 04:20:50;;;;;;;13.87;2.53;;;;;;;12.70;100.00;100907.69;5031390;28;20505;-77
2022/10/31 04:23:22;;;;;;;5.80;4.27;;;;;;;12.72;100.00;100909.00;5030300;28;20176;-89
2022/10/31 04:25:47;;;;;;;5.30;3.80;;;;;;;12.81;100.00;100912.59;5031688;28;20171;-77
2022/10/31 04:28:13;;;;;;;3.07;2.87;;;;;;;12.82;100.00;100924.38;5031787;28;20186;-83
2022/10/31 04:30:38;;;;;;;3.57;3.27;;;;;;;12.85;100.00;100928.41;5031365;28;20211;-84
2022/10/31 04:33:03;;;;;;;7.43;5.40;;;;;;;12.88;100.00;100927.81;5031237;28;20259;-86
2022/10/31 04:35:29;;;;;;;2.50;2.40;;;;;;;12.90;100.00;100922.81;5031338;28;20172;-87
2022/10/31 04:37:54;;;;;;;3.17;2.70;;;;;;;12.82;100.00;100929.84;5031294;28;20164;-87
2022/10/31 04:40:19;;;;;;;10.53;6.30;;;;;;;12.75;100.00;100927.56;5031299;28;20183;-87
2022/10/31 04:42:44;;;;;;;3.60;3.40;;;;;;;12.80;100.00;100915.66;5031216;28;20237;-88
2022/10/31 04:45:10;;;;;;;6.77;4.13;;;;;;;12.78;100.00;100924.19;5031219;28;20275;-89
2022/10/31 04:47:35;;;;;;;4.27;3.90;;;;;;;12.71;100.00;100917.53;5031488;28;20227;-85
2022/10/31 04:50:01;;;;;;;8.40;1.83;;;;;;;12.65;100.00;100924.28;5031097;28;20694;-87
2022/10/31 04:52:27;;;;;;;1.47;1.47;;;;;;;12.62;100.00;100919.44;5031084;28;20635;-85
2022/10/31 04:54:52;;;;;;;1.47;1.23;;;;;;;12.47;100.00;100918.69;5031044;28;20259;-87
2022/10/31 04:57:18;;;;;;;1.50;1.50;;;;;;;12.32;100.00;100921.81;5031171;28;20254;-88
2022/10/31 04:59:43;;;;;;;1.07;1.07;;;;;;;12.19;100.00;100923.47;5031131;28;20661;-84
2022/10/31 05:02:08;;;;;;;2.17;1.97;;;;;;;12.03;100.00;100919.50;5031054;28;20262;-86
2022/10/31 05:04:33;;;;;;;0.30;0.30;;;;;;;12.01;100.00;100918.19;5031107;28;20697;-87
2022/10/31 05:06:59;;;;;;;1.20;1.10;;;;;;;11.93;100.00;100916.16;5031439;28;20207;-89
2022/10/31 05:09:24;;;;;;;14.80;2.83;;;;;;;11.81;100.00;100905.75;5031093;28;20704;-83
2022/10/31 05:11:49;;;;;;;1.80;1.77;;;;;;;11.86;100.00;100909.19;5031710;28;20171;-89
2022/10/31 05:14:14;;;;;;;0.03;0.03;;;;;;;11.81;100.00;100901.06;5030892;28;20561;-86
2022/10/31 05:16:40;;;;;;;11.30;3.47;;;;;;;11.68;100.00;100901.88;5013441;28;20203;-89
2022/10/31 05:19:05;;;;;;;4.53;3.20;;;;;;;11.71;100.00;100895.78;5031233;28;20183;-85
2022/10/31 05:21:30;;;;;;;1.50;1.50;;;;;;;11.81;100.00;100901.06;5031074;28;20634;-88
2022/10/31 05:23:56;;;;;;;0.83;0.83;;;;;;;11.93;100.00;100897.00;5030702;28;20180;-87
2022/10/31 05:26:21;;;;;;;0.10;0.10;;;;;;;11.82;100.00;100897.22;5031059;28;20207;-89
2022/10/31 05:28:46;;;;;;;0.00;0.00;;;;;;;11.77;100.00;100897.31;5031561;28;20190;-85
2022/10/31 05:31:11;;;;;;;0.00;0.00;;;;;;;11.82;100.00;100905.44;5031313;28;20223;-88
2022/10/31 05:33:37;;;;;;;0.00;0.00;;;;;;;11.88;100.00;100898.75;5030702;28;20262;-90
2022/10/31 05:36:02;;;;;;;0.00;0.00;;;;;;;11.93;100.00;100891.53;5035010;28;20180;-86
2022/10/31 05:38:28;;;;;;;0.77;0.77;;;;;;;11.95;100.00;100889.28;5034794;28;20647;-81
2022/10/31 05:41:00;;;;;;;0.13;0.13;;;;;;;11.89;100.00;100896.81;5034862;28;20192;-90
2022/10/31 05:43:26;;;;;;;3.20;2.93;;;;;;;11.90;100.00;100893.75;5034686;28;20172;-84
2022/10/31 05:45:53;;;;;;;1.23;1.20;;;;;;;11.86;100.00;100895.50;5034594;28;20581;-90
2022/10/31 05:48:19;;;;;;;2.03;1.93;;;;;;;11.83;100.00;100909.78;5034793;28;20181;-82
2022/10/31 05:50:44;;;;;;;0.17;0.17;;;;;;;11.76;100.00;100914.84;5034634;28;20213;-83
2022/10/31 05:53:09;;;;;;;0.23;0.23;;;;;;;11.79;100.00;100914.28;5034457;28;20185;-89
2022/10/31 05:55:35;;;;;;;0.00;0.00;;;;;;;11.81;100.00;100914.78;5034588;28;20199;-88
2022/10/31 05:58:00;;;;;;;0.00;0.00;;;;;;;11.85;100.00;100918.50;5016949;28;20181;-85
2022/10/31 06:00:27;;;;;;;0.77;0.77;;;;;;;11.79;100.00;100911.53;5034357;28;20267;-90
2022/10/31 06:02:59;;;;;;;0.30;0.30;;;;;;;11.73;100.00;100910.00;5034373;28;20176;-87
2022/10/31 06:05:24;;;;;;;4.17;2.93;;;;;;;11.77;100.00;100916.47;5034294;28;20301;-89
2022/10/31 06:07:50;;;;;;;1.80;1.40;;;;;;;11.81;100.00;100919.44;5034319;28;20655;-88
2022/10/31 06:10:15;;;;;;;0.00;0.00;;;;;;;11.78;100.00;100914.56;5034279;28;20214;-87
2022/10/31 06:12:41;;;;;;;28.33;3.40;;;;;;;11.75;100.00;100912.44;5034147;28;20176;-83
2022/10/31 06:15:08;;;;;;;1.27;1.20;;;;;;;11.75;100.00;100915.97;5034326;28;20183;-83
2022/10/31 06:17:34;;;;;;;1.03;1.03;;;;;;;11.82;100.00;100927.34;5037262;28;20179;-89
2022/10/31 06:20:00;;;;;;;0.00;0.00;;;;;;;11.68;100.00;100928.44;5036798;28;20183;-81
2022/10/31 06:22:25;;;;;;;0.00;0.00;;;;;;;11.60;100.00;100924.53;5034266;28;20180;-76
2022/10/31 06:24:51;;;;;;;0.00;0.00;;;;;;;11.59;100.00;100931.94;5034017;28;20255;-82
2022/10/31 06:27:16;;;;;;;0.00;0.00;;;;;;;11.64;100.00;100931.00;5034035;28;20186;-76
2022/10/31 06:29:41;;;;;;;0.00;0.00;;;;;;;11.75;100.00;100937.06;5033861;28;20235;-89
2022/10/31 06:32:10;;;;;;;0.00;0.00;;;;;;;11.23;100.00;100931.81;5033847;28;20179;-81
2022/10/31 06:34:35;;;;;;;0.10;0.10;;;;;;;11.30;100.00;100934.97;5033353;28;20267;-79
2022/10/31 06:37:00;;;;;;;0.00;0.00;;;;;;;11.41;100.00;100934.75;5033358;28;20266;-86
2022/10/31 06:39:25;;;;;;;0.00;0.00;;;;;;;11.65;100.00;100940.00;5033396;28;20570;-76
2022/10/31 06:41:51;;;;;;;0.00;0.00;;;;;;;11.37;100.00;100934.56;5033159;28;20165;-81
2022/10/31 06:44:16;;;;;;;0.00;0.00;;;;;;;11.36;100.00;100938.41;5026531;28;20192;-82
2022/10/31 06:46:41;;;;;;;17.13;2.63;;;;;;;11.66;100.00;100936.16;5032173;28;20572;-76
2022/10/31 06:49:07;;;;;;;0.00;0.00;;;;;;;11.54;100.00;100942.97;5032979;28;20255;-75
2022/10/31 06:51:32;;;;;;;0.00;0.00;;;;;;;11.77;100.00;100943.03;5033798;28;20168;-89
2022/10/31 06:53:57;;;;;;;0.00;0.00;;;;;;;11.89;100.00;100944.16;5033172;28;20195;-84
2022/10/31 06:56:22;;;;;;;0.00;0.00;;;;;;;12.02;100.00;100947.19;5033240;28;20180;-86
2022/10/31 06:58:48;;;;;;;0.00;0.00;;;;;;;12.13;100.00;100943.88;5048819;28;20172;-87
2022/10/31 07:01:13;;;;;;;0.00;0.00;;;;;;;12.21;100.00;100945.09;5032921;28;20262;-89
2022/10/31 07:03:38;;;;;;;0.00;0.00;;;;;;;12.15;100.00;100938.94;5032837;28;20171;-82
2022/10/31 07:06:04;;;;;;;0.00;0.00;;;;;;;12.18;100.00;100943.78;5048097;28;20183;-83
2022/10/31 07:08:29;;;;;;;0.13;0.13;;;;;;;12.30;100.00;100954.19;5032588;28;20176;-82
2022/10/31 07:10:56;;;;;;;1.80;1.70;;;;;;;12.29;100.00;100960.75;5032371;28;20246;-82
2022/10/31 07:13:25;;;;;;;0.00;0.00;;;;;;;12.27;100.00;100960.28;5047729;28;20176;-83
2022/10/31 07:15:52;;;;;;;0.00;0.00;;;;;;;12.30;100.00;100959.69;5032443;28;20207;-83
2022/10/31 07:18:18;;;;;;;0.00;0.00;;;;;;;12.19;100.00;100966.50;5032496;28;20168;-81
2022/10/31 07:20:43;;;;;;;0.00;0.00;;;;;;;12.15;100.00;100969.06;5032332;28;20632;-83
2022/10/31 07:23:11;;;;;;;0.00;0.00;;;;;;;11.99;100.00;100967.75;5032170;28;20176;-83
2022/10/31 07:25:40;;;;;;;0.00;0.00;;;;;;;12.14;100.00;100969.34;5032234;28;20642;-81
2022/10/31 07:28:06;;;;;;;0.00;0.00;;;;;;;12.32;100.00;100962.09;5032255;28;20179;-79
2022/10/31 07:30:31;;;;;;;0.00;0.00;;;;;;;12.44;100.00;100978.78;5032181;28;20200;-83
2022/10/31 07:32:57;;;;;;;0.37;0.37;;;;;;;12.49;100.00;100975.94;5014205;28;20623;-82
2022/10/31 07:35:25;;;;;;;0.00;0.00;;;;;;;12.51;100.00;100974.50;5032155;28;20207;-83
2022/10/31 07:37:50;;;;;;;0.00;0.00;;;;;;;12.54;100.00;100977.72;5032106;28;20176;-82
2022/10/31 07:40:16;;;;;;;0.00;0.00;;;;;;;12.62;100.00;100975.06;5032062;28;20172;-82
2022/10/31 07:42:43;;;;;;;9.27;2.67;;;;;;;12.65;100.00;100979.91;5014009;28;20267;-83
2022/10/31 07:45:11;;;;;;;0.30;0.30;;;;;;;12.58;100.00;100973.25;5031758;28;20659;-82
2022/10/31 07:47:46;;;;;;;0.00;0.00;;;;;;;12.58;100.00;100973.25;5031776;28;20759;-82
2022/10/31 07:50:13;;;;;;;0.00;0.00;;;;;;;12.60;100.00;100973.75;5031859;28;20199;-80
2022/10/31 07:52:39;;;;;;;0.00;0.00;;;;;;;12.66;100.00;100981.53;5031501;28;20183;-81
2022/10/31 07:55:06;;;;;;;0.00;0.00;;;;;;;12.74;100.00;100980.78;5031939;28;20205;-83
2022/10/31 07:57:31;;;;;;;0.00;0.00;;;;;;;12.81;100.00;100985.81;5031797;28;20190;-80
2022/10/31 07:59:56;;;;;;;0.00;0.00;;;;;;;12.82;100.00;100988.25;5031586;28;20179;-84
2022/10/31 08:02:22;;;;;;;0.00;0.00;;;;;;;12.85;100.00;100997.78;5031503;28;20249;-83
2022/10/31 08:04:48;;;;;;;0.00;0.00;;;;;;;12.85;100.00;100995.03;5030636;28;20196;-80
2022/10/31 08:07:14;;;;;;;1.43;1.40;;;;;;;12.72;100.00;100996.72;5027109;28;20184;-81
2022/10/31 08:09:39;;;;;;;0.50;0.50;;;;;;;12.64;100.00;100999.41;5029271;28;20238;-84
2022/10/31 08:12:05;;;;;;;0.10;0.10;;;;;;;12.54;100.00;101000.47;5030169;28;20198;-83
2022/10/31 08:14:30;;;;;;;0.00;0.00;;;;;;;12.49;100.00;101001.41;5029747;28;20528;-77
2022/10/31 08:16:56;;;;;;;1.70;0.87;;;;;;;12.32;100.00;100990.31;5027885;28;20230;-76
2022/10/31 08:19:21;;;;;;;0.30;0.30;;;;;;;12.18;100.00;100986.81;5030887;28;20338;-76
2022/10/31 08:21:46;;;;;;;0.00;0.00;;;;;;;12.12;100.00;100988.00;5028176;28;20241;-78
2022/10/31 08:24:11;;;;;;;0.00;0.00;;;;;;;12.09;100.00;100989.44;5029137;28;20388;-78
2022/10/31 08:26:37;;;;;;;0.00;0.00;;;;;;;12.07;100.00;100985.41;5026416;28;20189;-77
2022/10/31 08:29:03;;;;;;;5.10;2.53;;;;;;;12.05;100.00;100973.94;5029615;28;20591;-78
2022/10/31 08:31:29;;;;;;;0.00;0.00;;;;;;;12.09;100.00;100983.16;5030745;28;20226;-78
2022/10/31 08:33:54;;;;;;;0.00;0.00;;;;;;;12.05;100.00;100973.94;5030641;28;20190;-79
2022/10/31 08:36:20;;;;;;;0.00;0.00;;;;;;;11.95;100.00;100976.91;5030840;28;20290;-77
2022/10/31 08:38:46;;;;;;;0.00;0.00;;;;;;;11.96;100.00;100976.59;5030885;28;20485;-81
2022/10/31 08:41:12;;;;;;;0.00;0.00;;;;;;;11.90;100.00;100969.63;5030882;28;20697;-79
2022/10/31 08:43:37;;;;;;;0.17;0.17;;;;;;;11.97;100.00;100960.97;5030491;28;20184;-77
2022/10/31 08:46:03;;;;;;;0.30;0.30;;;;;;;12.06;100.00;100959.13;5030761;28;20176;-80
2022/10/31 08:48:29;;;;;;;0.00;0.00;;;;;;;12.19;100.00;100955.53;5029722;28;20189;-78
2022/10/31 08:50:57;;;;;;;0.57;0.30;;;;;;;12.19;100.00;100955.53;5012516;28;20230;-78
2022/10/31 08:53:23;;;;;;;0.60;0.60;;;;;;;12.24;100.00;100952.69;5030670;28;20562;-82
2022/10/31 08:55:48;;;;;;;0.00;0.00;;;;;;;12.32;100.00;100951.13;5030679;28;20190;-78
2022/10/31 08:58:17;;;;;;;0.00;0.00;;;;;;;12.48;100.00;100953.19;5030643;28;20194;-79
2022/10/31 09:00:43;;;;;;;0.33;0.33;;;;;;;12.62;100.00;100950.38;5030397;28;20180;-77
2022/10/31 09:03:13;;;;;;;0.00;0.00;;;;;;;12.69;100.00;100958.97;5030232;28;20229;-79
2022/10/31 09:05:40;;;;;;;0.03;0.03;;;;;;;12.81;100.00;100955.66;5030375;28;20172;-76
2022/10/31 09:08:06;;;;;;;0.20;0.20;;;;;;;13.02;100.00;100959.50;5030710;28;20172;-85
2022/10/31 09:10:34;;;;;;;0.00;0.00;;;;;;;13.07;100.00;100959.34;5030121;28;20203;-84
2022/10/31 09:13:08;;;;;;;0.20;0.20;;;;;;;13.09;100.00;100954.34;5030696;28;20631;-80
2022/10/31 09:15:35;;;;;;;0.00;0.00;;;;;;;13.20;100.00;100951.38;5030549;28;20296;-80
2022/10/31 09:18:01;;;;;;;0.00;0.00;;;;;;;13.35;100.00;100950.94;5028761;28;20245;-86
2022/10/31 09:20:27;;;;;;;1.07;1.07;;;;;;;13.50;100.00;100950.53;5030285;28;20614;-91
2022/10/31 09:22:57;;;;;;;0.00;0.00;;;;;;;13.66;100.00;100948.94;5031028;28;20172;-90
2022/10/31 09:25:23;;;;;;;0.00;0.00;;;;;;;13.87;100.00;100948.31;5030955;28;20164;-91
2022/10/31 09:27:48;;;;;;;0.00;0.00;;;;;;;13.95;100.00;100956.59;5031193;28;20214;-90
2022/10/31 09:30:14;;;;;;;0.00;0.00;;;;;;;14.07;100.00;100963.41;5031051;28;20231;-90
2022/10/31 09:32:39;;;;;;;0.00;0.00;;;;;;;14.23;100.00;100967.28;5034003;28;20187;-88
2022/10/31 09:35:05;;;;;;;0.00;0.00;;;;;;;14.35;100.00;100970.19;5037472;28;20176;-89
2022/10/31 09:37:30;;;;;;;0.00;0.00;;;;;;;14.45;100.00;100972.63;5031224;28;20195;-84
2022/10/31 09:39:55;;;;;;;0.30;0.30;;;;;;;14.53;100.00;100966.31;5030467;28;20528;-87
2022/10/31 09:42:48;;;;;;;0.03;0.03;;;;;;;14.46;100.00;100971.50;5012822;28;20212;-88
2022/10/31 09:45:21;;;;;;;0.00;0.00;;;;;;;14.54;100.00;100967.13;5030101;28;20192;-87
2022/10/31 09:48:03;;;;;;;0.40;0.40;;;;;;;14.61;100.00;100967.47;5028755;28;20279;-82
2022/10/31 09:50:51;;;;;;;1.20;1.20;;;;;;;14.88;100.00;100967.06;5044434;28;20247;-89
2022/10/31 09:53:35;;;;;;;0.00;0.00;;;;;;;14.96;100.00;100970.13;5028738;28;20213;-87
2022/10/31 09:56:04;;;;;;;0.00;0.00;;;;;;;15.03;100.00;100968.47;5030034;28;20191;-86
2022/10/31 09:58:32;;;;;;;0.83;0.83;;;;;;;14.85;100.00;100964.97;5030567;28;20180;-85
2022/10/31 10:01:01;;;;;;;1.03;0.57;;;;;;;14.88;100.00;100966.25;5029876;28;20187;-77
2022/10/31 10:03:33;;;;;;;0.77;0.77;;;;;;;14.90;100.00;100964.00;5028072;28;20188;-85
2022/10/31 10:06:07;;;;;;;0.20;0.20;;;;;;;15.09;100.00;100960.88;5029526;28;20698;-83
2022/10/31 10:08:34;;;;;;;0.23;0.17;;;;;;;15.04;100.00;100959.09;5029722;28;20249;-84
2022/10/31 10:11:24;;;;;;;0.00;0.00;;;;;;;15.20;100.00;100955.81;5029820;28;20243;-85
2022/10/31 10:14:09;;;;;;;1.03;0.97;;;;;;;15.28;100.00;100965.97;5023582;28;20188;-83
2022/10/31 10:17:08;;;;;;;1.40;1.40;;;;;;;15.26;100.00;100958.06;5024064;28;20180;-89
2022/10/31 10:19:45;;;;;;;18.43;1.47;;;;;;;15.21;100.00;100961.00;5021645;28;20188;-86
2022/10/31 10:22:36;;;;;;;0.30;0.30;;;;;;;15.39;100.00;100957.03;5032355;28;20179;-87
2022/10/31 10:25:15;;;;;;;0.03;0.03;;;;;;;15.47;100.00;100960.84;5033801;28;20536;-86
2022/10/31 10:28:08;;;;;;;1.60;1.60;;;;;;;15.71;100.00;100954.78;5048943;28;20634;-89
2022/10/31 10:30:43;;;;;;;0.00;0.00;;;;;;;15.87;99.58;100955.00;5039291;28;20445;-88
2022/10/31 10:33:16;;;;;;;0.00;0.00;;;;;;;15.90;99.28;100946.06;5027909;28;20248;-84
2022/10/31 10:35:47;;;;;;;1.43;0.73;;;;;;;15.90;98.98;100946.06;5033125;28;20184;-89
2022/10/31 10:38:49;;;;;;;3.30;2.10;;;;;;;16.15;98.92;100939.53;5033189;28;20635;-84
2022/10/31 10:41:18;;;;;;;0.00;0.00;;;;;;;16.23;96.83;100930.41;5033475;28;20531;-86
2022/10/31 10:43:43;;;;;;;0.00;0.00;;;;;;;16.32;96.38;100930.31;5032907;28;20215;-88
2022/10/31 10:49:07;;;;;;;0.10;0.10;;;;;;;16.09;97.45;100927.13;5033395;28;20210;-85
2022/10/31 10:51:43;;;;;;;0.00;0.00;;;;;;;16.27;97.52;100919.50;5032897;28;20231;-86
2022/10/31 10:54:29;;;;;;;0.57;0.57;;;;;;;16.25;96.91;100919.84;5032652;28;20194;-87
2022/10/31 10:57:07;;;;;;;0.37;0.37;;;;;;;16.35;96.34;100924.97;5014986;28;20285;-87
2022/10/31 10:59:33;;;;;;;0.10;0.10;;;;;;;16.53;95.22;100917.31;5032732;28;20214;-86
2022/10/31 11:02:00;;;;;;;0.23;0.23;;;;;;;16.24;93.27;100909.16;5032583;28;20197;-85
2022/10/31 11:04:34;;;;;;;0.00;0.00;;;;;;;16.45;94.90;100911.88;5047654;28;20655;-87
2022/10/31 11:07:03;;;;;;;0.57;0.53;;;;;;;16.36;93.68;100903.69;5032754;28;20528;-86
2022/10/31 11:09:29;;;;;;;0.00;0.00;;;;;;;16.26;93.70;100901.34;5032409;28;20215;-85
2022/10/31 11:11:56;;;;;;;0.00;0.00;;;;;;;16.42;94.04;100898.75;5032486;28;20240;-83
2022/10/31 11:14:22;;;;;;;0.00;0.00;;;;;;;16.50;93.78;100895.13;5032162;28;20527;-88
2022/10/31 11:17:15;;;;;;;0.00;0.00;;;;;;;16.70;93.42;100894.28;5032717;28;20191;-87
2022/10/31 11:19:40;;;;;;;1.40;1.30;;;;;;;16.65;92.16;100889.78;5031210;28;20720;-85
2022/10/31 11:22:16;;;;;;;0.53;0.53;;;;;;;16.65;92.19;100884.25;5034816;28;20194;-86
2022/10/31 11:24:41;;;;;;;0.00;0.00;;;;;;;16.74;91.38;100886.91;5031604;28;20194;-86
2022/10/31 11:27:20;;;;;;;2.97;2.70;;;;;;;16.65;91.13;100877.94;5029131;28;20192;-83
2022/10/31 11:29:46;;;;;;;0.00;0.00;;;;;;;16.69;90.81;100880.84;5023124;28;20282;-83